Time;durP1;ratioP1;P1;durP2;ratioP2;P2;SDS_P1;SDS_P2;PMS_P1;PMS_P2;Temp;Humidity;BMP_temperature;BMP_pressure;BME280_temperature;BME280_humidity;BME280_pressure;Samples;Min_cycle;Max_cycle;Signal;HPM_P1;HPM_P2
2023/02/04 00:01:19;;;;;;;48.40;23.50;;;;;;;-0.88;64.71;100181.91;124099;1101;104223;-76
2023/02/04 00:03:51;;;;;;;49.10;23.40;;;;;;;-0.88;64.87;100178.45;124162;1101;104245;-76
2023/02/04 00:06:22;;;;;;;44.43;22.67;;;;;;;-0.88;64.89;100176.75;124125;1101;104211;-75
2023/02/04 00:08:53;;;;;;;52.07;24.90;;;;;;;-0.90;65.14;100170.60;124117;1102;104162;-75
2023/02/04 00:11:25;;;;;;;47.63;22.97;;;;;;;-0.91;65.13;100168.80;124123;1102;104162;-75
2023/02/04 00:13:56;;;;;;;50.93;23.53;;;;;;;-0.94;65.19;100169.45;124166;1102;104217;-75
2023/02/04 00:16:27;;;;;;;48.83;23.37;;;;;;;-0.94;64.62;100168.56;124183;1102;104245;-75
2023/02/04 00:18:58;;;;;;;46.60;22.47;;;;;;;-0.96;65.02;100162.41;124234;1102;102044;-75
2023/02/04 00:21:31;;;;;;;49.00;23.33;;;;;;;-0.97;64.44;100163.17;124096;1102;104194;-75
2023/02/04 00:24:02;;;;;;;49.07;23.53;;;;;;;-0.98;65.10;100156.22;123988;1102;104175;-75
2023/02/04 00:26:33;;;;;;;46.83;22.87;;;;;;;-0.99;64.88;100157.91;124126;1102;101871;-75
2023/02/04 00:29:04;;;;;;;49.05;23.35;;;;;;;-1.01;65.31;100153.41;124039;1102;102323;-75
2023/02/04 00:31:36;;;;;;;47.13;23.90;;;;;;;-1.02;65.74;100143.91;124161;1102;104211;-75
2023/02/04 00:34:07;;;;;;;44.50;22.63;;;;;;;-1.04;64.71;100146.38;124170;1102;104275;-75
2023/02/04 00:36:38;;;;;;;47.63;22.13;;;;;;;-1.06;64.63;100142.80;124155;1102;104162;-75
2023/02/04 00:39:09;;;;;;;44.27;23.03;;;;;;;-1.06;65.39;100134.15;124176;1102;109335;-75
2023/02/04 00:41:41;;;;;;;45.23;23.17;;;;;;;-1.08;65.63;100134.03;124141;1102;104169;-75
2023/02/04 00:44:13;;;;;;;48.37;22.70;;;;;;;-1.11;65.43;100132.14;124143;1102;104207;-75
2023/02/04 00:46:44;;;;;;;42.80;21.03;;;;;;;-1.13;66.07;100131.11;124148;1102;104189;-75
2023/02/04 00:49:15;;;;;;;42.27;20.93;;;;;;;-1.14;65.05;100128.41;124021;1102;104239;-75
2023/02/04 00:51:46;;;;;;;44.47;21.30;;;;;;;-1.14;66.03;100126.76;124124;1102;104181;-75
2023/02/04 00:54:18;;;;;;;40.83;20.83;;;;;;;-1.13;65.93;100125.95;124188;1102;104207;-75
2023/02/04 00:56:50;;;;;;;44.93;21.33;;;;;;;-1.15;65.33;100127.53;124139;1102;104309;-75
2023/02/04 00:59:22;;;;;;;42.63;20.47;;;;;;;-1.17;66.27;100123.95;123987;1102;104178;-75
2023/02/04 01:01:53;;;;;;;44.13;21.53;;;;;;;-1.22;65.11;100119.22;124232;1102;104164;-75
2023/02/04 01:04:24;;;;;;;44.50;21.55;;;;;;;-1.25;65.60;100121.56;124138;1102;104192;-75
2023/02/04 01:06:56;;;;;;;44.60;21.67;;;;;;;-1.25;65.15;100118.98;124212;1102;104242;-75
2023/02/04 01:09:27;;;;;;;39.93;21.10;;;;;;;-1.27;66.29;100122.33;124131;1102;104386;-75
2023/02/04 01:11:58;;;;;;;40.97;21.10;;;;;;;-1.26;65.31;100118.09;124213;1102;104169;-75
2023/02/04 01:14:29;;;;;;;38.90;20.50;;;;;;;-1.27;65.58;100118.87;124170;1102;102233;-75
2023/02/04 01:17:02;;;;;;;40.90;20.23;;;;;;;-1.29;65.84;100120.44;124172;1102;104235;-74
2023/02/04 01:19:33;;;;;;;42.00;20.97;;;;;;;-1.30;66.23;100132.39;124156;1102;101820;-75
2023/02/04 01:22:05;;;;;;;44.30;21.17;;;;;;;-1.33;66.29;100124.43;124184;1102;101981;-75
2023/02/04 01:24:36;;;;;;;42.00;20.10;;;;;;;-1.34;66.60;100112.36;124124;1102;104271;-75
2023/02/04 01:27:26;;;;;;;40.67;19.07;;;;;;;-1.35;65.79;100113.12;124161;1102;104175;-75
2023/02/04 01:29:57;;;;;;;39.67;18.90;;;;;;;-1.36;66.68;100113.02;124136;1102;102026;-75
2023/02/04 01:32:28;;;;;;;42.90;19.63;;;;;;;-1.39;65.71;100110.20;124218;1102;101833;-75
2023/02/04 01:34:59;;;;;;;35.90;18.80;;;;;;;-1.40;65.76;100108.39;124180;1102;102562;-75
2023/02/04 01:37:31;;;;;;;37.57;18.10;;;;;;;-1.40;66.63;100099.02;124227;1100;104258;-75
2023/02/04 01:40:02;;;;;;;37.53;18.73;;;;;;;-1.40;66.35;100100.67;124173;1102;104172;-75
2023/02/04 01:42:33;;;;;;;37.17;18.80;;;;;;;-1.40;66.64;100093.88;124144;1102;104242;-75
2023/02/04 01:45:07;;;;;;;40.50;19.17;;;;;;;-1.41;66.20;100084.34;124156;1102;101919;-75
2023/02/04 01:47:39;;;;;;;39.23;17.23;;;;;;;-1.41;65.80;100080.89;124194;1102;104163;-75
2023/02/04 01:50:13;;;;;;;39.10;18.13;;;;;;;-1.43;65.86;100085.92;124162;1102;102003;-76
2023/02/04 01:52:46;;;;;;;41.43;17.97;;;;;;;-1.45;66.82;100084.87;124197;1102;104217;-75
2023/02/04 01:55:19;;;;;;;37.97;17.20;;;;;;;-1.46;66.72;100075.39;124218;1101;102450;-75
2023/02/04 01:57:52;;;;;;;33.63;16.40;;;;;;;-1.48;66.09;100075.27;124712;1099;101836;-75
2023/02/04 02:00:26;;;;;;;34.97;16.07;;;;;;;-1.47;65.88;100071.01;124229;1099;103452;-75
2023/02/04 02:02:58;;;;;;;33.20;16.27;;;;;;;-1.49;66.56;100070.89;124198;1099;104183;-75
2023/02/04 02:05:36;;;;;;;33.63;16.40;;;;;;;-1.50;67.10;100066.52;124349;1099;104163;-75
2023/02/04 02:08:08;;;;;;;39.93;15.97;;;;;;;-1.49;66.79;100065.75;124354;1099;101973;-75
2023/02/04 02:10:44;;;;;;;34.60;16.13;;;;;;;-1.49;66.22;100068.31;124242;1099;104334;-75
2023/02/04 02:13:18;;;;;;;34.03;16.73;;;;;;;-1.48;66.54;100061.48;124506;1099;101952;-75
2023/02/04 02:15:50;;;;;;;33.90;15.20;;;;;;;-1.49;66.70;100047.73;124130;1102;104201;-75
2023/02/04 02:18:22;;;;;;;34.87;15.87;;;;;;;-1.49;66.33;100049.42;124363;1099;104239;-75
2023/02/04 02:20:53;;;;;;;35.87;15.63;;;;;;;-1.48;67.23;100044.39;124333;1099;104241;-75
2023/02/04 02:23:32;;;;;;;33.53;15.57;;;;;;;-1.46;66.69;100039.36;124404;1099;104242;-75
2023/02/04 02:26:03;;;;;;;34.27;15.30;;;;;;;-1.45;66.80;100039.48;124330;1099;101920;-75
2023/02/04 02:28:35;;;;;;;32.20;15.50;;;;;;;-1.41;66.61;100037.13;124518;1099;104127;-75
2023/02/04 02:31:07;;;;;;;33.77;14.73;;;;;;;-1.36;67.37;100043.52;124139;1102;104165;-75
2023/02/04 02:33:38;;;;;;;30.13;13.07;;;;;;;-1.33;67.55;100036.91;124224;1099;101975;-75
2023/02/04 02:36:10;;;;;;;30.57;13.53;;;;;;;-1.31;67.09;100037.95;124194;1099;104162;-76
2023/02/04 02:38:42;;;;;;;31.87;13.53;;;;;;;-1.29;66.45;100035.48;124271;1099;104339;-75
2023/02/04 02:41:13;;;;;;;27.90;12.77;;;;;;;-1.30;66.47;100041.41;124299;1099;101842;-75
2023/02/04 02:43:45;;;;;;;28.13;13.10;;;;;;;-1.28;67.41;100039.83;124453;1099;104166;-75
2023/02/04 02:46:16;;;;;;;26.53;12.13;;;;;;;-1.27;66.96;100039.06;124678;1099;104153;-75
2023/02/04 02:48:47;;;;;;;28.90;12.10;;;;;;;-1.28;67.27;100039.83;124298;1099;101845;-75
2023/02/04 02:51:19;;;;;;;23.40;11.57;;;;;;;-1.28;67.13;100039.83;124147;1102;101909;-75
2023/02/04 02:53:51;;;;;;;25.57;11.63;;;;;;;-1.27;67.59;100033.91;124385;1099;101891;-75
2023/02/04 02:56:22;;;;;;;26.90;12.23;;;;;;;-1.27;66.86;100037.37;124148;1099;104092;-75
2023/02/04 02:58:54;;;;;;;25.60;11.13;;;;;;;-1.24;66.93;100028.99;124547;1099;102433;-75
2023/02/04 03:01:26;;;;;;;22.93;10.50;;;;;;;-1.22;67.96;100032.57;124543;1099;104191;-76
2023/02/04 03:03:57;;;;;;;24.43;10.73;;;;;;;-1.22;67.50;100027.42;124612;1099;104201;-75
2023/02/04 03:06:28;;;;;;;25.03;11.23;;;;;;;-1.20;67.98;100028.45;124516;1098;104060;-75
2023/02/04 03:09:00;;;;;;;22.60;10.67;;;;;;;-1.17;67.09;100026.11;124575;1099;104210;-75
2023/02/04 03:11:31;;;;;;;27.50;12.10;;;;;;;-1.16;68.02;100025.30;124609;1099;101864;-75
2023/02/04 03:14:04;;;;;;;21.70;10.00;;;;;;;-1.16;67.99;100027.88;124255;1099;104434;-75
2023/02/04 03:16:37;;;;;;;24.30;10.60;;;;;;;-1.16;68.04;100022.73;124189;1099;104153;-75
2023/02/04 03:19:09;;;;;;;22.83;10.83;;;;;;;-1.14;67.83;100026.34;124584;1099;104211;-74
2023/02/04 03:21:41;;;;;;;23.37;9.40;;;;;;;-1.11;68.23;100025.64;124621;1099;101974;-75
2023/02/04 03:24:13;;;;;;;23.97;9.57;;;;;;;-1.11;68.53;100026.56;124213;1102;104188;-75
2023/02/04 03:26:44;;;;;;;21.43;9.83;;;;;;;-1.10;67.38;100025.77;124247;1102;104182;-75
2023/02/04 03:29:16;;;;;;;25.97;10.30;;;;;;;-1.08;68.59;100028.45;124228;1099;104172;-75
2023/02/04 03:31:47;;;;;;;25.67;10.50;;;;;;;-1.05;68.04;100025.22;124524;1099;104252;-75
2023/02/04 03:34:18;;;;;;;24.33;10.57;;;;;;;-1.04;68.17;100017.61;124626;1099;104227;-75
2023/02/04 03:36:50;;;;;;;24.97;10.90;;;;;;;-1.03;68.01;100008.19;124617;1099;104239;-75
2023/02/04 03:39:21;;;;;;;23.50;10.63;;;;;;;-1.03;67.58;100024.52;124620;1099;104306;-75
2023/02/04 03:41:52;;;;;;;21.77;10.40;;;;;;;-1.02;68.17;100025.44;124170;1099;104269;-76
2023/02/04 03:44:25;;;;;;;22.83;10.37;;;;;;;-0.99;68.00;100017.95;124229;1099;104248;-75
2023/02/04 03:46:58;;;;;;;23.00;10.03;;;;;;;-0.98;67.58;100019.72;124297;1098;104175;-75
2023/02/04 03:49:31;;;;;;;24.03;10.37;;;;;;;-0.99;68.39;100016.25;124484;1099;104265;-75
2023/02/04 03:52:02;;;;;;;22.40;10.27;;;;;;;-0.99;68.13;100012.80;124641;1099;102189;-76
2023/02/04 03:54:33;;;;;;;23.67;9.13;;;;;;;-0.99;68.08;100021.41;124643;1098;102666;-75
2023/02/04 03:57:05;;;;;;;22.90;9.43;;;;;;;-0.98;68.00;100019.72;124577;1099;101893;-75
2023/02/04 03:59:36;;;;;;;21.77;10.40;;;;;;;-0.98;68.76;100019.72;124611;1099;102409;-75
2023/02/04 04:02:07;;;;;;;22.60;10.07;;;;;;;-0.98;68.13;100015.48;124619;1099;104220;-76
2023/02/04 04:04:38;;;;;;;22.47;10.27;;;;;;;-0.98;68.30;100014.56;124630;1099;104166;-75
2023/02/04 04:07:10;;;;;;;23.53;9.80;;;;;;;-0.96;68.56;100016.48;124610;1099;104370;-75
2023/02/04 04:09:41;;;;;;;23.90;9.70;;;;;;;-0.95;68.22;100017.36;124573;1099;104166;-76
2023/02/04 04:12:12;;;;;;;22.63;9.70;;;;;;;-0.95;68.82;100014.79;124344;1099;104201;-75
2023/02/04 04:14:43;;;;;;;24.47;10.83;;;;;;;-0.93;67.70;100013.25;124578;1099;104264;-75
2023/02/04 04:17:15;;;;;;;22.47;10.13;;;;;;;-0.91;68.79;100006.52;124631;1099;101814;-75
2023/02/04 04:19:48;;;;;;;26.13;10.77;;;;;;;-0.91;68.96;100007.41;124253;1098;104623;-75
2023/02/04 04:22:19;;;;;;;25.07;10.70;;;;;;;-0.91;68.17;100015.12;124155;1099;104242;-76
2023/02/04 04:24:50;;;;;;;22.97;10.23;;;;;;;-0.90;68.56;100018.62;124250;1099;104239;-75
2023/02/04 04:27:22;;;;;;;26.83;11.83;;;;;;;-0.91;68.74;100015.12;124262;1099;101932;-76
2023/02/04 04:29:53;;;;;;;25.03;11.83;;;;;;;-0.88;69.10;100011.01;124448;1099;104411;-75
2023/02/04 04:32:24;;;;;;;28.10;12.23;;;;;;;-0.88;68.56;100006.73;124592;1099;101907;-76
2023/02/04 04:34:55;;;;;;;26.93;12.43;;;;;;;-0.86;68.00;100012.00;124572;1099;104366;-75
2023/02/04 04:37:27;;;;;;;26.40;12.03;;;;;;;-0.87;68.55;100010.20;124546;1099;104326;-75
2023/02/04 04:39:59;;;;;;;26.30;13.57;;;;;;;-0.85;68.66;100016.38;124533;1099;104233;-76
2023/02/04 04:42:30;;;;;;;26.63;11.77;;;;;;;-0.83;68.58;100009.66;124456;1099;104227;-75
2023/02/04 04:45:01;;;;;;;29.07;13.50;;;;;;;-0.82;68.61;100012.34;124518;1099;102569;-76
2023/02/04 04:47:33;;;;;;;26.63;13.10;;;;;;;-0.81;69.03;100019.30;124476;1099;104169;-76
2023/02/04 04:50:04;;;;;;;25.63;13.10;;;;;;;-0.81;68.59;100023.53;124579;1098;104297;-75
2023/02/04 04:52:36;;;;;;;28.27;14.47;;;;;;;-0.82;69.05;100016.61;124294;1099;104172;-75
2023/02/04 04:55:08;;;;;;;27.33;14.57;;;;;;;-0.83;68.31;100018.27;124520;1099;104213;-75
2023/02/04 04:57:39;;;;;;;29.43;15.20;;;;;;;-0.80;68.30;100018.49;124597;1099;104262;-76
2023/02/04 05:00:17;;;;;;;26.67;14.10;;;;;;;-0.81;69.25;100032.18;124435;1099;104186;-76
2023/02/04 05:02:48;;;;;;;29.07;14.40;;;;;;;-0.80;68.61;100028.80;124541;1098;104325;-76
2023/02/04 05:05:20;;;;;;;28.93;14.53;;;;;;;-0.78;69.06;100028.91;124492;1098;104260;-75
2023/02/04 05:07:52;;;;;;;25.30;12.80;;;;;;;-0.77;68.17;100029.02;124383;1099;104269;-75
2023/02/04 05:10:23;;;;;;;25.10;12.30;;;;;;;-0.75;68.79;100027.47;124300;1099;104268;-76
2023/02/04 05:12:55;;;;;;;23.77;12.00;;;;;;;-0.75;68.29;100021.41;124501;1099;104169;-75
2023/02/04 05:15:26;;;;;;;24.63;12.33;;;;;;;-0.72;69.25;100021.62;124210;1099;104655;-76
2023/02/04 05:17:58;;;;;;;27.00;12.73;;;;;;;-0.71;68.96;100022.55;124207;1099;104185;-75
2023/02/04 05:20:29;;;;;;;23.57;13.67;;;;;;;-0.73;68.88;100028.47;124251;1099;104166;-75
2023/02/04 05:23:01;;;;;;;26.57;14.30;;;;;;;-0.71;68.91;100031.16;124249;1099;104213;-75
2023/02/04 05:25:32;;;;;;;27.70;15.50;;;;;;;-0.69;68.88;100031.27;124385;1099;104201;-75
2023/02/04 05:28:03;;;;;;;27.83;16.53;;;;;;;-0.69;68.30;100029.58;124615;1098;101878;-75
2023/02/04 05:30:34;;;;;;;32.63;16.70;;;;;;;-0.67;69.47;100027.12;124313;1099;104182;-75
2023/02/04 05:33:05;;;;;;;27.47;13.93;;;;;;;-0.68;68.54;100028.80;124497;1099;104265;-76
2023/02/04 05:35:37;;;;;;;27.20;14.57;;;;;;;-0.67;69.63;100038.34;124226;1099;104425;-75
2023/02/04 05:38:08;;;;;;;27.50;14.10;;;;;;;-0.66;69.27;100039.23;124372;1099;102349;-75
2023/02/04 05:40:39;;;;;;;25.60;13.20;;;;;;;-0.65;68.45;100038.45;124405;1099;104198;-75
2023/02/04 05:43:11;;;;;;;25.07;12.03;;;;;;;-0.64;68.55;100040.22;124418;1099;104245;-76
2023/02/04 05:45:42;;;;;;;23.73;12.10;;;;;;;-0.65;68.54;100038.45;124330;1099;101903;-76
2023/02/04 05:48:13;;;;;;;25.73;13.13;;;;;;;-0.64;69.08;100037.64;124286;1099;103791;-75
2023/02/04 05:51:01;;;;;;;23.80;11.80;;;;;;;-0.63;69.16;100035.18;124282;1099;101868;-75
2023/02/04 05:53:33;;;;;;;27.03;12.30;;;;;;;-0.62;69.21;100036.98;124274;1099;104264;-76
2023/02/04 05:56:05;;;;;;;24.65;11.80;;;;;;;-0.61;69.71;100031.05;124399;1099;101907;-75
2023/02/04 05:58:36;;;;;;;26.60;12.47;;;;;;;-0.61;69.21;100036.21;124535;1099;101820;-76
2023/02/04 06:01:07;;;;;;;21.27;10.77;;;;;;;-0.59;69.48;100041.48;124443;1099;101927;-76
2023/02/04 06:03:39;;;;;;;21.55;10.65;;;;;;;-0.61;69.02;100049.09;124367;1099;102825;-75
2023/02/04 06:06:10;;;;;;;22.57;10.57;;;;;;;-0.60;69.28;100053.44;124670;1099;104268;-75
2023/02/04 06:08:41;;;;;;;24.43;11.30;;;;;;;-0.62;69.61;100056.72;124712;1099;104238;-76
2023/02/04 06:11:12;;;;;;;24.43;10.53;;;;;;;-0.62;69.67;100051.56;124625;1099;102518;-75
2023/02/04 06:13:44;;;;;;;23.87;10.53;;;;;;;-0.57;69.93;100053.67;124536;1099;104172;-75
2023/02/04 06:16:15;;;;;;;25.20;11.57;;;;;;;-0.56;69.90;100052.01;124442;1099;104277;-75
2023/02/04 06:18:46;;;;;;;26.03;11.77;;;;;;;-0.58;69.25;100056.12;124539;1099;104285;-75
2023/02/04 06:21:17;;;;;;;28.03;11.60;;;;;;;-0.58;69.02;100058.70;124245;1099;102336;-75
2023/02/04 06:23:48;;;;;;;24.10;10.73;;;;;;;-0.57;69.14;100068.25;124465;1099;104262;-76
2023/02/04 06:26:20;;;;;;;21.23;9.80;;;;;;;-0.56;69.03;100063.20;124684;1099;102081;-76
2023/02/04 06:28:51;;;;;;;22.87;10.17;;;;;;;-0.54;69.04;100065.89;124622;1099;102898;-76
2023/02/04 06:31:22;;;;;;;22.53;9.83;;;;;;;-0.53;69.44;100071.93;124661;1099;104194;-75
2023/02/04 06:33:54;;;;;;;25.65;11.45;;;;;;;-0.53;69.50;100070.27;124609;1099;104248;-76
2023/02/04 06:36:25;;;;;;;25.50;11.20;;;;;;;-0.49;69.65;100074.84;124172;1098;104173;-75
2023/02/04 06:38:56;;;;;;;22.27;10.93;;;;;;;-0.47;69.77;100081.00;124543;1099;104348;-76
2023/02/04 06:41:27;;;;;;;23.63;10.50;;;;;;;-0.44;69.74;100081.22;124145;1099;101887;-76
2023/02/04 06:43:58;;;;;;;23.40;11.27;;;;;;;-0.40;69.49;100078.09;124356;1099;104369;-75
2023/02/04 06:46:30;;;;;;;24.20;11.63;;;;;;;-0.34;69.86;100077.65;124561;1098;110231;-75
2023/02/04 06:49:01;;;;;;;26.50;12.37;;;;;;;-0.24;69.90;100076.62;124623;1099;104241;-76
2023/02/04 06:51:33;;;;;;;23.93;11.30;;;;;;;-0.18;69.62;100074.48;124634;1099;104657;-75
2023/02/04 06:54:04;;;;;;;23.37;11.27;;;;;;;-0.12;69.96;100072.34;124686;1099;104226;-75
2023/02/04 06:56:35;;;;;;;25.60;11.60;;;;;;;-0.07;69.66;100073.55;124635;1099;104227;-75
2023/02/04 06:59:06;;;;;;;26.57;12.07;;;;;;;-0.03;69.70;100070.41;124576;1099;104220;-74
2023/02/04 07:01:38;;;;;;;26.53;11.80;;;;;;;0.03;69.86;100074.20;124619;1099;104211;-74
2023/02/04 07:04:09;;;;;;;25.13;12.40;;;;;;;0.06;69.89;100075.30;124586;1099;104376;-74
2023/02/04 07:06:40;;;;;;;25.73;12.23;;;;;;;0.09;69.34;100088.42;124529;1099;102557;-74
2023/02/04 07:09:11;;;;;;;25.20;11.53;;;;;;;0.13;69.60;100076.66;124612;1099;104265;-74
2023/02/04 07:11:42;;;;;;;22.30;11.45;;;;;;;0.17;69.16;100086.38;124608;1099;104232;-74
2023/02/04 07:14:14;;;;;;;24.63;11.47;;;;;;;0.23;69.35;100084.23;124622;1099;102009;-74
2023/02/04 07:16:45;;;;;;;26.20;11.97;;;;;;;0.25;69.40;100086.92;124624;1098;102338;-74
2023/02/04 07:19:16;;;;;;;24.70;11.80;;;;;;;0.28;69.81;100089.72;124498;1099;104217;-74
2023/02/04 07:21:47;;;;;;;23.77;10.97;;;;;;;0.31;69.45;100095.09;124485;1099;104242;-74
2023/02/04 07:24:19;;;;;;;23.20;10.43;;;;;;;0.33;69.80;100090.95;124581;1099;101907;-74
2023/02/04 07:26:50;;;;;;;23.03;10.70;;;;;;;0.43;69.93;100100.23;124548;1099;104182;-74
2023/02/04 07:29:21;;;;;;;22.90;11.27;;;;;;;0.51;69.30;100099.06;124250;1099;101914;-75
2023/02/04 07:31:53;;;;;;;22.90;10.23;;;;;;;0.57;69.36;100102.07;124339;1099;104230;-75
2023/02/04 07:34:24;;;;;;;24.30;9.97;;;;;;;0.61;69.34;100096.34;124286;1099;104169;-74
2023/02/04 07:36:55;;;;;;;23.73;10.80;;;;;;;0.69;69.46;100102.92;124269;1099;104201;-75
2023/02/04 07:39:26;;;;;;;21.63;9.27;;;;;;;0.78;69.57;100104.33;124485;1099;104268;-75
2023/02/04 07:41:58;;;;;;;20.60;9.70;;;;;;;0.85;69.32;100103.97;124521;1098;104181;-74
2023/02/04 07:44:29;;;;;;;22.53;10.00;;;;;;;0.89;69.28;100096.53;124169;1102;104252;-74
2023/02/04 07:47:00;;;;;;;24.63;10.77;;;;;;;0.95;69.75;100098.64;124573;1099;101875;-75
2023/02/04 07:49:31;;;;;;;21.67;10.60;;;;;;;1.00;69.38;100104.12;124461;1099;104239;-75
2023/02/04 07:52:03;;;;;;;24.05;11.10;;;;;;;1.03;69.22;100107.80;124475;1099;104217;-74
2023/02/04 07:54:34;;;;;;;26.73;11.07;;;;;;;1.12;69.65;100107.49;124491;1099;104278;-74
2023/02/04 07:57:05;;;;;;;24.07;10.33;;;;;;;1.23;69.41;100103.96;124386;1099;104200;-74
2023/02/04 07:59:37;;;;;;;21.93;9.93;;;;;;;1.32;68.97;100105.36;124519;1099;103682;-74
2023/02/04 08:02:09;;;;;;;23.33;10.17;;;;;;;1.29;68.74;100106.03;124546;1099;104286;-74
2023/02/04 08:04:41;;;;;;;23.93;10.07;;;;;;;1.33;68.73;100105.45;124585;1099;104159;-75
2023/02/04 08:07:12;;;;;;;22.47;10.13;;;;;;;1.36;69.19;100108.24;124590;1099;104338;-74
2023/02/04 08:09:43;;;;;;;22.10;9.73;;;;;;;1.49;69.36;100107.35;124255;1099;104201;-74
2023/02/04 08:12:14;;;;;;;22.13;9.63;;;;;;;1.56;69.01;100106.09;124621;1099;101820;-74
2023/02/04 08:14:46;;;;;;;21.57;9.37;;;;;;;1.55;68.91;100123.27;124629;1099;104248;-74
2023/02/04 08:17:17;;;;;;;17.50;7.83;;;;;;;1.50;67.37;100123.78;124538;1099;101890;-74
2023/02/04 08:19:48;;;;;;;19.23;7.90;;;;;;;1.51;68.70;100120.38;124568;1099;104316;-74
2023/02/04 08:22:19;;;;;;;16.70;7.27;;;;;;;1.55;68.37;100122.39;124447;1099;104211;-74
2023/02/04 08:24:51;;;;;;;20.07;7.13;;;;;;;1.58;68.91;100118.30;124462;1099;104301;-74
2023/02/04 08:27:22;;;;;;;18.07;7.63;;;;;;;1.68;68.74;100117.20;124503;1099;104252;-74
2023/02/04 08:29:54;;;;;;;21.77;7.93;;;;;;;1.65;68.31;100122.17;124339;1099;104198;-74
2023/02/04 08:32:28;;;;;;;22.10;8.27;;;;;;;1.59;68.35;100119.18;124609;1099;104379;-74
2023/02/04 08:34:59;;;;;;;19.37;7.90;;;;;;;1.64;68.63;100129.83;124554;1099;104060;-74
2023/02/04 08:37:31;;;;;;;17.63;7.67;;;;;;;1.69;68.23;100120.70;124540;1099;104213;-74
2023/02/04 08:40:02;;;;;;;17.13;7.47;;;;;;;1.63;67.78;100138.41;124630;1098;101852;-74
2023/02/04 08:42:33;;;;;;;17.17;7.50;;;;;;;1.52;67.58;100135.11;124535;1099;101858;-74
2023/02/04 08:45:05;;;;;;;16.80;7.40;;;;;;;1.46;67.19;100140.77;124554;1098;104274;-74
2023/02/04 08:47:37;;;;;;;18.73;6.87;;;;;;;1.47;67.54;100132.22;124397;1099;104166;-74
2023/02/04 08:50:10;;;;;;;19.80;6.90;;;;;;;1.46;67.32;100137.30;124631;1099;104274;-74
2023/02/04 08:52:41;;;;;;;16.87;7.27;;;;;;;1.35;67.16;100144.34;124393;1099;104248;-74
2023/02/04 08:55:12;;;;;;;16.33;7.40;;;;;;;1.34;67.17;100147.70;124633;1098;101859;-73
2023/02/04 08:57:44;;;;;;;16.97;7.10;;;;;;;1.41;67.84;100145.63;124630;1099;104195;-74
2023/02/04 09:00:17;;;;;;;20.50;7.40;;;;;;;1.47;67.58;100141.68;124562;1099;104320;-74
2023/02/04 09:02:48;;;;;;;18.90;7.30;;;;;;;1.61;67.63;100143.48;124701;1099;104281;-74
2023/02/04 09:05:20;;;;;;;16.07;6.87;;;;;;;1.75;68.10;100141.80;124554;1098;104236;-74
2023/02/04 09:07:51;;;;;;;18.30;7.03;;;;;;;1.86;67.44;100140.79;124656;1099;104182;-75
2023/02/04 09:10:22;;;;;;;16.17;6.40;;;;;;;1.96;67.70;100138.01;124550;1099;104237;-74
2023/02/04 09:12:54;;;;;;;16.75;6.60;;;;;;;2.01;66.91;100143.48;124584;1099;104371;-74
2023/02/04 09:15:27;;;;;;;17.47;6.70;;;;;;;1.91;66.13;100141.08;124674;1099;101849;-74
2023/02/04 09:18:03;;;;;;;17.65;6.10;;;;;;;1.88;65.57;100146.95;124471;1099;104198;-74
2023/02/04 09:20:35;;;;;;;16.97;6.93;;;;;;;1.87;66.56;100131.33;124569;1099;101806;-74
2023/02/04 09:23:09;;;;;;;15.37;6.60;;;;;;;1.93;66.24;100137.81;124623;1098;101916;-74
2023/02/04 09:25:41;;;;;;;17.30;6.50;;;;;;;1.98;66.59;100141.58;124471;1099;103474;-74
2023/02/04 09:28:15;;;;;;;14.03;5.90;;;;;;;2.08;66.32;100137.88;124434;1099;104239;-74
2023/02/04 09:30:47;;;;;;;15.63;6.13;;;;;;;2.19;66.62;100132.50;124146;1099;104268;-74
2023/02/04 09:33:18;;;;;;;14.17;6.17;;;;;;;2.18;65.25;100135.87;124638;1099;101912;-74
2023/02/04 09:35:50;;;;;;;17.53;6.00;;;;;;;2.13;65.45;100120.05;124625;1099;104252;-74
2023/02/04 09:38:21;;;;;;;13.03;5.60;;;;;;;2.08;63.69;100137.88;124427;1099;104165;-73
2023/02/04 09:40:57;;;;;;;17.17;6.20;;;;;;;2.02;65.51;100129.72;124353;1099;104249;-74
2023/02/04 09:43:31;;;;;;;14.37;5.20;;;;;;;2.02;64.50;100131.42;124584;1099;104169;-74
2023/02/04 09:46:03;;;;;;;13.80;5.85;;;;;;;2.02;64.51;100128.84;124438;1099;101832;-74
2023/02/04 09:48:34;;;;;;;11.90;5.37;;;;;;;2.07;65.56;100119.66;124365;1099;104325;-74
2023/02/04 09:51:08;;;;;;;12.57;5.47;;;;;;;2.14;64.84;100116.67;124592;1099;104248;-73
2023/02/04 09:53:40;;;;;;;17.42;6.20;;;;;;;2.23;65.83;100124.10;124635;1098;104360;-74
2023/02/04 09:56:13;;;;;;;17.97;5.90;;;;;;;2.29;65.80;100121.90;124624;1099;102271;-74
2023/02/04 09:58:45;;;;;;;16.43;5.70;;;;;;;2.29;65.46;100119.31;124518;1099;101878;-74
2023/02/04 10:01:18;;;;;;;11.45;4.65;;;;;;;2.33;64.83;100126.48;124394;1099;104175;-74
2023/02/04 10:03:50;;;;;;;12.93;5.23;;;;;;;2.35;65.51;100127.46;124236;1099;104169;-74
2023/02/04 10:06:23;;;;;;;14.40;5.50;;;;;;;2.36;65.31;100130.97;124505;1099;104230;-74
2023/02/04 10:08:56;;;;;;;12.60;5.50;;;;;;;2.28;65.02;100131.38;124390;1099;104169;-73
2023/02/04 10:11:32;;;;;;;15.93;5.83;;;;;;;2.15;64.01;100127.12;124375;1099;104163;-74
2023/02/04 10:14:03;;;;;;;15.17;6.23;;;;;;;2.11;63.38;100129.42;124295;1099;104300;-73
2023/02/04 10:16:40;;;;;;;12.33;5.50;;;;;;;2.12;64.63;100126.93;124299;1099;104169;-74
2023/02/04 10:19:16;;;;;;;15.33;6.87;;;;;;;2.19;64.36;100133.38;124321;1099;102230;-73
2023/02/04 10:21:48;;;;;;;14.83;6.40;;;;;;;2.21;64.38;100134.36;124387;1099;104197;-74
2023/02/04 10:24:21;;;;;;;12.47;5.50;;;;;;;2.31;64.48;100136.74;124453;1099;104172;-74
2023/02/04 10:26:53;;;;;;;15.20;5.47;;;;;;;2.38;64.08;100129.36;124255;1099;102426;-74
2023/02/04 10:29:25;;;;;;;11.90;5.53;;;;;;;2.53;65.24;100132.02;124516;1099;101935;-74
2023/02/04 10:31:56;;;;;;;14.17;5.40;;;;;;;2.67;65.16;100125.98;124641;1099;102875;-73
2023/02/04 10:34:38;;;;;;;14.37;5.70;;;;;;;2.82;65.95;100134.69;124241;1099;101814;-74
2023/02/04 10:37:20;;;;;;;16.75;6.65;;;;;;;2.93;64.89;100137.02;124316;1099;104198;-74
2023/02/04 10:39:52;;;;;;;15.03;5.90;;;;;;;2.98;64.39;100138.21;124335;1099;104230;-74
2023/02/04 10:42:26;;;;;;;14.90;5.97;;;;;;;3.05;65.10;100141.27;124306;1099;104325;-74
2023/02/04 10:44:58;;;;;;;11.07;5.20;;;;;;;3.07;63.83;100133.58;124226;1099;104211;-73
2023/02/04 10:47:30;;;;;;;13.80;5.33;;;;;;;3.06;63.79;100132.66;124576;1099;104299;-73
2023/02/04 10:50:05;;;;;;;12.37;5.33;;;;;;;3.04;62.79;100139.46;124559;1099;104233;-73
2023/02/04 10:52:40;;;;;;;11.80;4.77;;;;;;;3.03;63.41;100144.55;124523;1099;104319;-74
2023/02/04 10:55:15;;;;;;;17.33;6.10;;;;;;;2.99;62.73;100138.30;124272;1099;101919;-74
2023/02/04 10:57:48;;;;;;;16.20;5.87;;;;;;;2.98;62.98;100140.80;124219;1099;102400;-74
2023/02/04 11:00:22;;;;;;;13.73;5.97;;;;;;;3.06;63.38;100143.03;124509;1099;104230;-74
2023/02/04 11:02:59;;;;;;;15.18;5.47;;;;;;;3.17;62.79;100148.86;124650;1099;104191;-74
2023/02/04 11:05:32;;;;;;;12.20;5.20;;;;;;;3.16;62.78;100156.55;124389;1099;104338;-74
2023/02/04 11:08:18;;;;;;;15.65;5.60;;;;;;;3.18;63.55;100147.16;124364;1099;104200;-74
2023/02/04 11:10:55;;;;;;;11.00;5.00;;;;;;;3.22;63.20;100149.13;124220;1099;104248;-74
2023/02/04 11:13:28;;;;;;;10.63;4.80;;;;;;;3.17;62.31;100146.27;124588;1099;104291;-74
2023/02/04 11:16:12;;;;;;;10.87;4.57;;;;;;;3.17;63.03;100151.45;124562;1099;104286;-74
2023/02/04 11:18:46;;;;;;;;;;;;;;;3.06;60.66;100142.15;124630;1099;104241;-74
2023/02/04 11:21:26;;;;;;;14.73;4.77;;;;;;;3.15;63.31;100153.07;124564;1099;104319;-74